sensor_id;sensor_type;location;lat;lon;timestamp;P1;durP1;ratioP1;P2;durP2;ratioP2
65189;SDS011;51777;53.570;9.984;2022-12-29T00:02:07;4.10;;;2.50;;
65189;SDS011;51777;53.570;9.984;2022-12-29T00:04:32;2.78;;;2.35;;
65189;SDS011;51777;53.570;9.984;2022-12-29T00:06:58;3.55;;;2.47;;
65189;SDS011;51777;53.570;9.984;2022-12-29T00:09:25;3.85;;;2.45;;
65189;SDS011;51777;53.570;9.984;2022-12-29T00:11:50;3.25;;;2.83;;
65189;SDS011;51777;53.570;9.984;2022-12-29T00:14:16;4.70;;;2.60;;
65189;SDS011;51777;53.570;9.984;2022-12-29T00:16:59;3.38;;;2.25;;
65189;SDS011;51777;53.570;9.984;2022-12-29T00:19:25;4.50;;;2.70;;
65189;SDS011;51777;53.570;9.984;2022-12-29T00:22:10;3.20;;;2.30;;
65189;SDS011;51777;53.570;9.984;2022-12-29T00:24:55;3.65;;;2.58;;
65189;SDS011;51777;53.570;9.984;2022-12-29T00:27:30;2.75;;;2.55;;
65189;SDS011;51777;53.570;9.984;2022-12-29T00:30:16;4.45;;;2.95;;
65189;SDS011;51777;53.570;9.984;2022-12-29T00:33:35;4.30;;;2.67;;
65189;SDS011;51777;53.570;9.984;2022-12-29T00:36:21;3.30;;;3.00;;
65189;SDS011;51777;53.570;9.984;2022-12-29T00:38:53;2.80;;;2.50;;
65189;SDS011;51777;53.570;9.984;2022-12-29T00:41:41;3.58;;;2.38;;
65189;SDS011;51777;53.570;9.984;2022-12-29T00:44:25;3.90;;;3.22;;
65189;SDS011;51777;53.570;9.984;2022-12-29T00:46:50;4.60;;;2.78;;
65189;SDS011;51777;53.570;9.984;2022-12-29T00:49:15;5.47;;;2.72;;
65189;SDS011;51777;53.570;9.984;2022-12-29T00:54:25;3.40;;;2.70;;
65189;SDS011;51777;53.570;9.984;2022-12-29T00:56:52;3.63;;;2.63;;
65189;SDS011;51777;53.570;9.984;2022-12-29T00:59:18;5.00;;;2.80;;
65189;SDS011;51777;53.570;9.984;2022-12-29T01:01:44;2.83;;;2.42;;
65189;SDS011;51777;53.570;9.984;2022-12-29T01:04:10;3.28;;;2.67;;
65189;SDS011;51777;53.570;9.984;2022-12-29T01:06:37;3.53;;;2.60;;
65189;SDS011;51777;53.570;9.984;2022-12-29T01:09:03;5.18;;;2.60;;
65189;SDS011;51777;53.570;9.984;2022-12-29T01:11:48;2.80;;;2.60;;
65189;SDS011;51777;53.570;9.984;2022-12-29T01:14:14;5.53;;;2.97;;
65189;SDS011;51777;53.570;9.984;2022-12-29T01:16:40;6.28;;;2.90;;
65189;SDS011;51777;53.570;9.984;2022-12-29T01:19:05;3.97;;;2.50;;
65189;SDS011;51777;53.570;9.984;2022-12-29T01:21:31;2.40;;;2.20;;
65189;SDS011;51777;53.570;9.984;2022-12-29T01:23:57;3.25;;;2.25;;
65189;SDS011;51777;53.570;9.984;2022-12-29T01:26:22;2.63;;;2.42;;
65189;SDS011;51777;53.570;9.984;2022-12-29T01:28:48;2.83;;;2.50;;
65189;SDS011;51777;53.570;9.984;2022-12-29T01:31:14;3.20;;;2.80;;
65189;SDS011;51777;53.570;9.984;2022-12-29T01:33:40;3.20;;;2.88;;
65189;SDS011;51777;53.570;9.984;2022-12-29T01:36:07;5.13;;;2.95;;
65189;SDS011;51777;53.570;9.984;2022-12-29T01:38:34;2.90;;;2.70;;
65189;SDS011;51777;53.570;9.984;2022-12-29T01:41:01;3.08;;;2.80;;
65189;SDS011;51777;53.570;9.984;2022-12-29T01:43:46;3.05;;;2.78;;
65189;SDS011;51777;53.570;9.984;2022-12-29T01:46:31;5.65;;;2.85;;
65189;SDS011;51777;53.570;9.984;2022-12-29T01:51:33;4.53;;;3.08;;
65189;SDS011;51777;53.570;9.984;2022-12-29T01:54:03;6.22;;;3.40;;
65189;SDS011;51777;53.570;9.984;2022-12-29T01:56:33;3.22;;;2.88;;
65189;SDS011;51777;53.570;9.984;2022-12-29T01:59:01;3.45;;;3.15;;
65189;SDS011;51777;53.570;9.984;2022-12-29T02:01:31;4.78;;;3.28;;
65189;SDS011;51777;53.570;9.984;2022-12-29T02:03:57;4.70;;;3.38;;
65189;SDS011;51777;53.570;9.984;2022-12-29T02:06:28;3.95;;;3.17;;
65189;SDS011;51777;53.570;9.984;2022-12-29T02:08:58;4.68;;;3.28;;
65189;SDS011;51777;53.570;9.984;2022-12-29T02:11:24;3.60;;;3.30;;
65189;SDS011;51777;53.570;9.984;2022-12-29T02:13:52;3.65;;;3.10;;
65189;SDS011;51777;53.570;9.984;2022-12-29T02:18:51;4.05;;;3.20;;
65189;SDS011;51777;53.570;9.984;2022-12-29T02:29:52;5.53;;;3.08;;
65189;SDS011;51777;53.570;9.984;2022-12-29T02:40:42;3.28;;;2.97;;
65189;SDS011;51777;53.570;9.984;2022-12-29T02:43:24;3.22;;;2.90;;
65189;SDS011;51777;53.570;9.984;2022-12-29T02:46:01;2.97;;;2.70;;
65189;SDS011;51777;53.570;9.984;2022-12-29T02:51:35;2.92;;;2.65;;
65189;SDS011;51777;53.570;9.984;2022-12-29T02:54:08;4.60;;;2.60;;
65189;SDS011;51777;53.570;9.984;2022-12-29T02:56:53;2.95;;;2.70;;
65189;SDS011;51777;53.570;9.984;2022-12-29T02:59:18;3.08;;;2.78;;
65189;SDS011;51777;53.570;9.984;2022-12-29T03:05:02;3.20;;;2.65;;
65189;SDS011;51777;53.570;9.984;2022-12-29T03:10:30;3.05;;;2.63;;
65189;SDS011;51777;53.570;9.984;2022-12-29T03:13:27;6.07;;;2.55;;
65189;SDS011;51777;53.570;9.984;2022-12-29T03:24:18;2.70;;;2.50;;
65189;SDS011;51777;53.570;9.984;2022-12-29T03:26:47;2.80;;;2.55;;
65189;SDS011;51777;53.570;9.984;2022-12-29T03:29:14;3.08;;;2.58;;
65189;SDS011;51777;53.570;9.984;2022-12-29T03:31:41;4.65;;;2.70;;
65189;SDS011;51777;53.570;9.984;2022-12-29T03:34:08;3.35;;;2.63;;
65189;SDS011;51777;53.570;9.984;2022-12-29T03:36:42;3.10;;;2.50;;
65189;SDS011;51777;53.570;9.984;2022-12-29T03:39:12;2.92;;;2.70;;
65189;SDS011;51777;53.570;9.984;2022-12-29T03:41:40;2.97;;;2.40;;
65189;SDS011;51777;53.570;9.984;2022-12-29T03:44:08;3.47;;;2.60;;
65189;SDS011;51777;53.570;9.984;2022-12-29T03:46:33;2.75;;;2.55;;
65189;SDS011;51777;53.570;9.984;2022-12-29T03:48:59;2.22;;;2.00;;
65189;SDS011;51777;53.570;9.984;2022-12-29T03:51:24;2.60;;;2.13;;
65189;SDS011;51777;53.570;9.984;2022-12-29T03:53:49;3.50;;;1.90;;
65189;SDS011;51777;53.570;9.984;2022-12-29T03:56:15;2.90;;;2.15;;
65189;SDS011;51777;53.570;9.984;2022-12-29T03:58:40;3.25;;;2.30;;
65189;SDS011;51777;53.570;9.984;2022-12-29T04:01:05;3.67;;;2.53;;
65189;SDS011;51777;53.570;9.984;2022-12-29T04:03:31;2.33;;;2.20;;
65189;SDS011;51777;53.570;9.984;2022-12-29T04:05:56;2.20;;;2.00;;
65189;SDS011;51777;53.570;9.984;2022-12-29T04:08:22;2.50;;;2.10;;
65189;SDS011;51777;53.570;9.984;2022-12-29T04:10:50;3.65;;;2.28;;
65189;SDS011;51777;53.570;9.984;2022-12-29T04:13:16;2.25;;;2.05;;
65189;SDS011;51777;53.570;9.984;2022-12-29T04:15:45;2.47;;;1.80;;
65189;SDS011;51777;53.570;9.984;2022-12-29T04:18:10;2.42;;;2.05;;
65189;SDS011;51777;53.570;9.984;2022-12-29T04:20:36;2.30;;;2.10;;
65189;SDS011;51777;53.570;9.984;2022-12-29T04:23:20;1.77;;;1.67;;
65189;SDS011;51777;53.570;9.984;2022-12-29T04:25:46;2.00;;;1.88;;
65189;SDS011;51777;53.570;9.984;2022-12-29T04:28:12;2.08;;;1.98;;
65189;SDS011;51777;53.570;9.984;2022-12-29T04:30:38;2.22;;;1.88;;
65189;SDS011;51777;53.570;9.984;2022-12-29T04:33:03;4.05;;;1.80;;
65189;SDS011;51777;53.570;9.984;2022-12-29T04:35:28;1.77;;;1.60;;
65189;SDS011;51777;53.570;9.984;2022-12-29T04:37:54;2.63;;;1.70;;
65189;SDS011;51777;53.570;9.984;2022-12-29T04:40:19;1.80;;;1.70;;
65189;SDS011;51777;53.570;9.984;2022-12-29T04:42:45;2.05;;;1.80;;
65189;SDS011;51777;53.570;9.984;2022-12-29T04:45:10;2.47;;;1.67;;
65189;SDS011;51777;53.570;9.984;2022-12-29T04:47:35;2.38;;;1.58;;
65189;SDS011;51777;53.570;9.984;2022-12-29T04:50:01;2.13;;;1.80;;
65189;SDS011;51777;53.570;9.984;2022-12-29T04:52:26;2.40;;;1.60;;
65189;SDS011;51777;53.570;9.984;2022-12-29T04:54:52;3.10;;;1.70;;
65189;SDS011;51777;53.570;9.984;2022-12-29T04:57:17;2.40;;;1.80;;
65189;SDS011;51777;53.570;9.984;2022-12-29T04:59:42;2.28;;;1.60;;
65189;SDS011;51777;53.570;9.984;2022-12-29T05:02:08;2.72;;;1.70;;
65189;SDS011;51777;53.570;9.984;2022-12-29T05:04:33;1.80;;;1.30;;
65189;SDS011;51777;53.570;9.984;2022-12-29T05:06:58;3.63;;;1.20;;
65189;SDS011;51777;53.570;9.984;2022-12-29T05:09:24;1.90;;;1.40;;
65189;SDS011;51777;53.570;9.984;2022-12-29T05:11:49;1.50;;;1.40;;
65189;SDS011;51777;53.570;9.984;2022-12-29T05:14:14;2.33;;;1.50;;
65189;SDS011;51777;53.570;9.984;2022-12-29T05:16:40;1.23;;;1.20;;
65189;SDS011;51777;53.570;9.984;2022-12-29T05:19:05;2.08;;;1.50;;
65189;SDS011;51777;53.570;9.984;2022-12-29T05:21:30;1.67;;;1.58;;
65189;SDS011;51777;53.570;9.984;2022-12-29T05:23:56;1.50;;;1.40;;
65189;SDS011;51777;53.570;9.984;2022-12-29T05:26:21;1.50;;;1.40;;
65189;SDS011;51777;53.570;9.984;2022-12-29T05:28:46;1.98;;;1.40;;
65189;SDS011;51777;53.570;9.984;2022-12-29T05:31:12;1.83;;;1.40;;
65189;SDS011;51777;53.570;9.984;2022-12-29T05:33:37;1.50;;;1.40;;
65189;SDS011;51777;53.570;9.984;2022-12-29T05:36:03;3.20;;;1.67;;
65189;SDS011;51777;53.570;9.984;2022-12-29T05:38:32;1.40;;;1.30;;
65189;SDS011;51777;53.570;9.984;2022-12-29T05:40:58;2.67;;;1.50;;
65189;SDS011;51777;53.570;9.984;2022-12-29T05:43:23;2.85;;;1.50;;
65189;SDS011;51777;53.570;9.984;2022-12-29T05:45:48;1.60;;;1.40;;
65189;SDS011;51777;53.570;9.984;2022-12-29T05:48:14;1.88;;;1.23;;
65189;SDS011;51777;53.570;9.984;2022-12-29T05:50:40;5.55;;;1.40;;
65189;SDS011;51777;53.570;9.984;2022-12-29T05:53:05;1.30;;;1.20;;
65189;SDS011;51777;53.570;9.984;2022-12-29T05:55:31;2.65;;;1.40;;
65189;SDS011;51777;53.570;9.984;2022-12-29T05:57:56;0.88;;;0.80;;
65189;SDS011;51777;53.570;9.984;2022-12-29T06:00:21;1.75;;;1.05;;
65189;SDS011;51777;53.570;9.984;2022-12-29T06:02:47;1.25;;;1.15;;
65189;SDS011;51777;53.570;9.984;2022-12-29T06:05:12;0.52;;;0.52;;
65189;SDS011;51777;53.570;9.984;2022-12-29T06:07:38;0.85;;;0.85;;
65189;SDS011;51777;53.570;9.984;2022-12-29T06:10:04;1.10;;;1.10;;
65189;SDS011;51777;53.570;9.984;2022-12-29T06:12:30;1.27;;;0.95;;
65189;SDS011;51777;53.570;9.984;2022-12-29T06:14:56;2.00;;;1.20;;
65189;SDS011;51777;53.570;9.984;2022-12-29T06:17:21;1.20;;;1.10;;
65189;SDS011;51777;53.570;9.984;2022-12-29T06:19:46;4.45;;;1.13;;
65189;SDS011;51777;53.570;9.984;2022-12-29T06:22:12;2.30;;;1.15;;
65189;SDS011;51777;53.570;9.984;2022-12-29T06:24:37;0.80;;;0.80;;
65189;SDS011;51777;53.570;9.984;2022-12-29T06:27:03;1.85;;;0.85;;
65189;SDS011;51777;53.570;9.984;2022-12-29T06:29:28;2.50;;;1.10;;
65189;SDS011;51777;53.570;9.984;2022-12-29T06:31:54;1.80;;;1.10;;
65189;SDS011;51777;53.570;9.984;2022-12-29T06:34:22;0.70;;;0.70;;
65189;SDS011;51777;53.570;9.984;2022-12-29T06:36:49;2.30;;;1.20;;
65189;SDS011;51777;53.570;9.984;2022-12-29T06:39:14;2.35;;;1.00;;
65189;SDS011;51777;53.570;9.984;2022-12-29T06:41:39;1.27;;;1.10;;
65189;SDS011;51777;53.570;9.984;2022-12-29T06:44:05;1.20;;;1.00;;
65189;SDS011;51777;53.570;9.984;2022-12-29T06:46:30;1.67;;;1.33;;
65189;SDS011;51777;53.570;9.984;2022-12-29T06:48:56;3.03;;;1.55;;
65189;SDS011;51777;53.570;9.984;2022-12-29T06:51:21;1.88;;;1.40;;
65189;SDS011;51777;53.570;9.984;2022-12-29T06:53:46;2.15;;;1.10;;
65189;SDS011;51777;53.570;9.984;2022-12-29T06:56:12;2.45;;;1.35;;
65189;SDS011;51777;53.570;9.984;2022-12-29T06:58:37;0.82;;;0.80;;
65189;SDS011;51777;53.570;9.984;2022-12-29T07:01:02;3.35;;;1.27;;
65189;SDS011;51777;53.570;9.984;2022-12-29T07:03:28;2.85;;;1.30;;
65189;SDS011;51777;53.570;9.984;2022-12-29T07:05:53;0.98;;;0.98;;
65189;SDS011;51777;53.570;9.984;2022-12-29T07:08:19;2.85;;;1.67;;
65189;SDS011;51777;53.570;9.984;2022-12-29T07:10:45;1.67;;;1.20;;
65189;SDS011;51777;53.570;9.984;2022-12-29T07:13:11;2.33;;;1.55;;
65189;SDS011;51777;53.570;9.984;2022-12-29T07:15:37;3.30;;;1.67;;
65189;SDS011;51777;53.570;9.984;2022-12-29T07:18:03;1.00;;;1.00;;
65189;SDS011;51777;53.570;9.984;2022-12-29T07:20:29;1.48;;;1.10;;
65189;SDS011;51777;53.570;9.984;2022-12-29T07:22:54;3.08;;;1.60;;
65189;SDS011;51777;53.570;9.984;2022-12-29T07:25:20;1.55;;;1.25;;
65189;SDS011;51777;53.570;9.984;2022-12-29T07:27:45;1.50;;;1.40;;
65189;SDS011;51777;53.570;9.984;2022-12-29T07:30:11;2.67;;;1.40;;
65189;SDS011;51777;53.570;9.984;2022-12-29T07:32:37;3.08;;;1.40;;
65189;SDS011;51777;53.570;9.984;2022-12-29T07:35:02;1.40;;;1.30;;
65189;SDS011;51777;53.570;9.984;2022-12-29T07:37:27;1.77;;;1.50;;
65189;SDS011;51777;53.570;9.984;2022-12-29T07:39:53;3.45;;;1.50;;
65189;SDS011;51777;53.570;9.984;2022-12-29T07:42:18;2.92;;;1.40;;
65189;SDS011;51777;53.570;9.984;2022-12-29T07:44:44;2.90;;;1.40;;
65189;SDS011;51777;53.570;9.984;2022-12-29T07:47:09;2.45;;;1.30;;
65189;SDS011;51777;53.570;9.984;2022-12-29T07:49:34;2.53;;;1.60;;
65189;SDS011;51777;53.570;9.984;2022-12-29T07:52:00;2.95;;;1.67;;
65189;SDS011;51777;53.570;9.984;2022-12-29T07:54:25;1.77;;;1.50;;
65189;SDS011;51777;53.570;9.984;2022-12-29T07:56:50;2.72;;;1.60;;
65189;SDS011;51777;53.570;9.984;2022-12-29T07:59:16;2.13;;;1.50;;
65189;SDS011;51777;53.570;9.984;2022-12-29T08:01:42;1.38;;;1.23;;
65189;SDS011;51777;53.570;9.984;2022-12-29T08:04:07;3.85;;;1.50;;
65189;SDS011;51777;53.570;9.984;2022-12-29T08:06:32;1.83;;;1.70;;
65189;SDS011;51777;53.570;9.984;2022-12-29T08:08:58;1.92;;;1.10;;
65189;SDS011;51777;53.570;9.984;2022-12-29T08:11:25;5.18;;;1.48;;
65189;SDS011;51777;53.570;9.984;2022-12-29T08:13:50;3.53;;;1.25;;
65189;SDS011;51777;53.570;9.984;2022-12-29T08:16:15;1.65;;;0.80;;
65189;SDS011;51777;53.570;9.984;2022-12-29T08:18:41;1.55;;;1.08;;
65189;SDS011;51777;53.570;9.984;2022-12-29T08:21:06;2.60;;;1.20;;
65189;SDS011;51777;53.570;9.984;2022-12-29T08:23:32;0.75;;;0.73;;
65189;SDS011;51777;53.570;9.984;2022-12-29T08:25:58;2.78;;;1.30;;
65189;SDS011;51777;53.570;9.984;2022-12-29T08:28:24;1.80;;;1.15;;
65189;SDS011;51777;53.570;9.984;2022-12-29T08:30:50;1.20;;;1.00;;
65189;SDS011;51777;53.570;9.984;2022-12-29T08:33:15;1.67;;;1.10;;
65189;SDS011;51777;53.570;9.984;2022-12-29T08:35:40;2.90;;;1.40;;
65189;SDS011;51777;53.570;9.984;2022-12-29T08:38:06;2.78;;;1.50;;
65189;SDS011;51777;53.570;9.984;2022-12-29T08:40:31;5.63;;;2.55;;
65189;SDS011;51777;53.570;9.984;2022-12-29T08:42:56;2.38;;;1.35;;
65189;SDS011;51777;53.570;9.984;2022-12-29T08:45:22;2.78;;;1.20;;
65189;SDS011;51777;53.570;9.984;2022-12-29T08:47:47;2.85;;;1.13;;
65189;SDS011;51777;53.570;9.984;2022-12-29T08:50:12;1.10;;;0.90;;
65189;SDS011;51777;53.570;9.984;2022-12-29T08:52:38;2.42;;;1.20;;
65189;SDS011;51777;53.570;9.984;2022-12-29T08:55:03;1.95;;;1.10;;
65189;SDS011;51777;53.570;9.984;2022-12-29T08:57:29;1.73;;;1.10;;
65189;SDS011;51777;53.570;9.984;2022-12-29T08:59:54;2.60;;;1.20;;
65189;SDS011;51777;53.570;9.984;2022-12-29T09:02:19;0.95;;;0.60;;
65189;SDS011;51777;53.570;9.984;2022-12-29T09:04:45;2.65;;;0.88;;
65189;SDS011;51777;53.570;9.984;2022-12-29T09:07:10;4.13;;;0.70;;
65189;SDS011;51777;53.570;9.984;2022-12-29T09:09:35;1.05;;;0.70;;
65189;SDS011;51777;53.570;9.984;2022-12-29T09:12:01;1.98;;;1.00;;
65189;SDS011;51777;53.570;9.984;2022-12-29T09:14:26;3.15;;;0.88;;
65189;SDS011;51777;53.570;9.984;2022-12-29T09:16:52;0.90;;;0.45;;
65189;SDS011;51777;53.570;9.984;2022-12-29T09:19:36;4.22;;;0.90;;
65189;SDS011;51777;53.570;9.984;2022-12-29T09:22:01;7.25;;;1.05;;
65189;SDS011;51777;53.570;9.984;2022-12-29T09:24:28;2.85;;;1.05;;
65189;SDS011;51777;53.570;9.984;2022-12-29T09:26:53;1.92;;;1.00;;
65189;SDS011;51777;53.570;9.984;2022-12-29T09:29:18;2.60;;;0.95;;
65189;SDS011;51777;53.570;9.984;2022-12-29T09:31:44;2.83;;;1.10;;
65189;SDS011;51777;53.570;9.984;2022-12-29T09:34:09;2.88;;;0.82;;
65189;SDS011;51777;53.570;9.984;2022-12-29T09:36:34;2.15;;;0.68;;
65189;SDS011;51777;53.570;9.984;2022-12-29T09:39:00;5.85;;;1.30;;
65189;SDS011;51777;53.570;9.984;2022-12-29T09:46:44;5.15;;;1.00;;
65189;SDS011;51777;53.570;9.984;2022-12-29T09:52:02;2.25;;;0.70;;
65189;SDS011;51777;53.570;9.984;2022-12-29T09:57:25;4.18;;;1.20;;
65189;SDS011;51777;53.570;9.984;2022-12-29T09:59:52;2.58;;;0.80;;
65189;SDS011;51777;53.570;9.984;2022-12-29T10:05:01;6.03;;;1.40;;
65189;SDS011;51777;53.570;9.984;2022-12-29T10:07:38;6.00;;;1.08;;
65189;SDS011;51777;53.570;9.984;2022-12-29T10:10:24;1.67;;;0.80;;
65189;SDS011;51777;53.570;9.984;2022-12-29T10:20:53;4.07;;;0.87;;
65189;SDS011;51777;53.570;9.984;2022-12-29T10:23:31;2.45;;;0.65;;
65189;SDS011;51777;53.570;9.984;2022-12-29T10:26:00;5.20;;;0.90;;
65189;SDS011;51777;53.570;9.984;2022-12-29T10:28:34;14.00;;;0.82;;
65189;SDS011;51777;53.570;9.984;2022-12-29T10:31:09;4.38;;;1.13;;
65189;SDS011;51777;53.570;9.984;2022-12-29T10:33:42;5.13;;;1.08;;
65189;SDS011;51777;53.570;9.984;2022-12-29T10:36:13;2.70;;;0.77;;
65189;SDS011;51777;53.570;9.984;2022-12-29T10:41:31;1.35;;;0.90;;
65189;SDS011;51777;53.570;9.984;2022-12-29T10:44:03;2.20;;;1.00;;
65189;SDS011;51777;53.570;9.984;2022-12-29T10:46:29;3.63;;;1.10;;
65189;SDS011;51777;53.570;9.984;2022-12-29T10:49:00;2.08;;;0.85;;
65189;SDS011;51777;53.570;9.984;2022-12-29T10:51:35;6.15;;;1.10;;
65189;SDS011;51777;53.570;9.984;2022-12-29T10:54:11;4.40;;;1.50;;
65189;SDS011;51777;53.570;9.984;2022-12-29T11:06:58;2.58;;;0.88;;
65189;SDS011;51777;53.570;9.984;2022-12-29T11:09:27;4.95;;;1.42;;
65189;SDS011;51777;53.570;9.984;2022-12-29T11:11:54;5.00;;;1.23;;
65189;SDS011;51777;53.570;9.984;2022-12-29T11:14:27;4.47;;;1.38;;
65189;SDS011;51777;53.570;9.984;2022-12-29T11:16:58;3.75;;;1.42;;
65189;SDS011;51777;53.570;9.984;2022-12-29T11:19:27;7.05;;;1.30;;
65189;SDS011;51777;53.570;9.984;2022-12-29T11:21:56;4.45;;;0.80;;
65189;SDS011;51777;53.570;9.984;2022-12-29T11:24:43;3.47;;;1.17;;
65189;SDS011;51777;53.570;9.984;2022-12-29T11:27:18;6.63;;;1.20;;
65189;SDS011;51777;53.570;9.984;2022-12-29T11:29:48;4.93;;;1.25;;
65189;SDS011;51777;53.570;9.984;2022-12-29T11:34:44;2.17;;;0.70;;
65189;SDS011;51777;53.570;9.984;2022-12-29T11:39:40;6.25;;;0.88;;
65189;SDS011;51777;53.570;9.984;2022-12-29T11:42:22;1.70;;;0.75;;
65189;SDS011;51777;53.570;9.984;2022-12-29T11:45:09;1.80;;;0.80;;
65189;SDS011;51777;53.570;9.984;2022-12-29T11:50:07;4.55;;;1.23;;
65189;SDS011;51777;53.570;9.984;2022-12-29T11:52:42;2.83;;;1.00;;
65189;SDS011;51777;53.570;9.984;2022-12-29T11:55:16;5.00;;;1.02;;
65189;SDS011;51777;53.570;9.984;2022-12-29T11:57:44;2.63;;;0.80;;
65189;SDS011;51777;53.570;9.984;2022-12-29T12:00:17;0.82;;;0.60;;
65189;SDS011;51777;53.570;9.984;2022-12-29T12:05:41;5.57;;;0.80;;
65189;SDS011;51777;53.570;9.984;2022-12-29T12:08:12;5.60;;;0.77;;
65189;SDS011;51777;53.570;9.984;2022-12-29T12:10:43;3.33;;;0.68;;
65189;SDS011;51777;53.570;9.984;2022-12-29T12:13:31;5.55;;;1.40;;
65189;SDS011;51777;53.570;9.984;2022-12-29T12:16:04;3.17;;;0.80;;
65189;SDS011;51777;53.570;9.984;2022-12-29T12:23:59;5.00;;;0.82;;
65189;SDS011;51777;53.570;9.984;2022-12-29T12:26:53;7.38;;;1.30;;
65189;SDS011;51777;53.570;9.984;2022-12-29T12:29:28;4.75;;;1.20;;
65189;SDS011;51777;53.570;9.984;2022-12-29T12:32:04;3.95;;;1.30;;
65189;SDS011;51777;53.570;9.984;2022-12-29T12:35:03;3.50;;;0.90;;
65189;SDS011;51777;53.570;9.984;2022-12-29T12:41:24;8.45;;;1.10;;
65189;SDS011;51777;53.570;9.984;2022-12-29T12:43:37;11.27;;;1.58;;
65189;SDS011;51777;53.570;9.984;2022-12-29T12:49:15;8.50;;;1.60;;
65189;SDS011;51777;53.570;9.984;2022-12-29T12:51:51;2.70;;;1.05;;
65189;SDS011;51777;53.570;9.984;2022-12-29T12:54:36;1.73;;;0.90;;
65189;SDS011;51777;53.570;9.984;2022-12-29T12:57:52;4.97;;;1.63;;
65189;SDS011;51777;53.570;9.984;2022-12-29T13:06:09;4.90;;;1.08;;
65189;SDS011;51777;53.570;9.984;2022-12-29T13:17:07;6.15;;;1.02;;
65189;SDS011;51777;53.570;9.984;2022-12-29T13:28:24;5.68;;;1.27;;
65189;SDS011;51777;53.570;9.984;2022-12-29T13:33:34;5.93;;;1.38;;
65189;SDS011;51777;53.570;9.984;2022-12-29T13:36:09;1.88;;;0.90;;
65189;SDS011;51777;53.570;9.984;2022-12-29T13:38:38;4.25;;;1.50;;
65189;SDS011;51777;53.570;9.984;2022-12-29T13:41:08;3.72;;;1.30;;
65189;SDS011;51777;53.570;9.984;2022-12-29T13:43:38;3.60;;;1.02;;
65189;SDS011;51777;53.570;9.984;2022-12-29T13:46:14;2.13;;;1.02;;
65189;SDS011;51777;53.570;9.984;2022-12-29T13:48:45;4.80;;;0.77;;
65189;SDS011;51777;53.570;9.984;2022-12-29T13:51:16;5.47;;;1.40;;
65189;SDS011;51777;53.570;9.984;2022-12-29T14:02:01;4.45;;;1.10;;
65189;SDS011;51777;53.570;9.984;2022-12-29T14:04:28;6.13;;;1.05;;
65189;SDS011;51777;53.570;9.984;2022-12-29T14:07:19;4.80;;;1.00;;
65189;SDS011;51777;53.570;9.984;2022-12-29T14:09:47;5.05;;;1.40;;
65189;SDS011;51777;53.570;9.984;2022-12-29T14:12:35;3.63;;;1.20;;
65189;SDS011;51777;53.570;9.984;2022-12-29T14:17:35;0.82;;;0.60;;
65189;SDS011;51777;53.570;9.984;2022-12-29T14:20:01;5.60;;;0.90;;
65189;SDS011;51777;53.570;9.984;2022-12-29T14:22:28;2.72;;;0.88;;
65189;SDS011;51777;53.570;9.984;2022-12-29T14:24:54;3.83;;;1.02;;
65189;SDS011;51777;53.570;9.984;2022-12-29T14:29:45;3.05;;;0.80;;
65189;SDS011;51777;53.570;9.984;2022-12-29T14:34:56;2.55;;;0.75;;
65189;SDS011;51777;53.570;9.984;2022-12-29T14:37:24;2.30;;;0.55;;
65189;SDS011;51777;53.570;9.984;2022-12-29T14:40:34;1.25;;;0.73;;
65189;SDS011;51777;53.570;9.984;2022-12-29T14:42:47;5.10;;;1.15;;
65189;SDS011;51777;53.570;9.984;2022-12-29T14:47:40;4.88;;;1.10;;
65189;SDS011;51777;53.570;9.984;2022-12-29T14:58:19;2.03;;;0.80;;
65189;SDS011;51777;53.570;9.984;2022-12-29T15:00:48;8.27;;;1.52;;
65189;SDS011;51777;53.570;9.984;2022-12-29T15:03:17;6.00;;;1.20;;
65189;SDS011;51777;53.570;9.984;2022-12-29T15:06:10;4.25;;;1.13;;
65189;SDS011;51777;53.570;9.984;2022-12-29T15:08:40;5.95;;;1.23;;
65189;SDS011;51777;53.570;9.984;2022-12-29T15:13:41;3.90;;;1.15;;
65189;SDS011;51777;53.570;9.984;2022-12-29T15:18:56;2.60;;;1.05;;
65189;SDS011;51777;53.570;9.984;2022-12-29T15:21:23;3.63;;;0.98;;
65189;SDS011;51777;53.570;9.984;2022-12-29T15:23:51;3.55;;;1.58;;
65189;SDS011;51777;53.570;9.984;2022-12-29T15:26:17;4.45;;;1.70;;
65189;SDS011;51777;53.570;9.984;2022-12-29T15:28:47;2.97;;;1.20;;
65189;SDS011;51777;53.570;9.984;2022-12-29T15:31:16;8.98;;;1.88;;
65189;SDS011;51777;53.570;9.984;2022-12-29T15:33:49;7.18;;;1.60;;
65189;SDS011;51777;53.570;9.984;2022-12-29T15:38:49;4.78;;;1.25;;
65189;SDS011;51777;53.570;9.984;2022-12-29T15:41:19;6.13;;;2.28;;
65189;SDS011;51777;53.570;9.984;2022-12-29T15:44:00;8.88;;;2.50;;
65189;SDS011;51777;53.570;9.984;2022-12-29T15:46:34;7.82;;;2.40;;
65189;SDS011;51777;53.570;9.984;2022-12-29T15:49:00;7.90;;;2.80;;
65189;SDS011;51777;53.570;9.984;2022-12-29T15:51:35;7.90;;;2.38;;
65189;SDS011;51777;53.570;9.984;2022-12-29T15:54:03;13.55;;;2.50;;
65189;SDS011;51777;53.570;9.984;2022-12-29T15:56:29;8.10;;;2.50;;
65189;SDS011;51777;53.570;9.984;2022-12-29T15:58:57;7.50;;;2.58;;
65189;SDS011;51777;53.570;9.984;2022-12-29T16:01:26;3.65;;;1.92;;
65189;SDS011;51777;53.570;9.984;2022-12-29T16:04:00;9.07;;;3.75;;
65189;SDS011;51777;53.570;9.984;2022-12-29T16:06:39;6.25;;;2.53;;
65189;SDS011;51777;53.570;9.984;2022-12-29T16:09:27;8.52;;;3.80;;
65189;SDS011;51777;53.570;9.984;2022-12-29T16:12:01;7.60;;;4.50;;
65189;SDS011;51777;53.570;9.984;2022-12-29T16:14:31;5.10;;;2.20;;
65189;SDS011;51777;53.570;9.984;2022-12-29T16:17:00;10.20;;;3.40;;
65189;SDS011;51777;53.570;9.984;2022-12-29T16:19:31;5.78;;;2.55;;
65189;SDS011;51777;53.570;9.984;2022-12-29T16:22:00;16.23;;;4.57;;
65189;SDS011;51777;53.570;9.984;2022-12-29T16:24:29;14.07;;;4.53;;
65189;SDS011;51777;53.570;9.984;2022-12-29T16:29:22;12.25;;;2.88;;
65189;SDS011;51777;53.570;9.984;2022-12-29T16:31:55;10.20;;;2.80;;
65189;SDS011;51777;53.570;9.984;2022-12-29T16:37:01;8.35;;;2.20;;
65189;SDS011;51777;53.570;9.984;2022-12-29T16:39:50;6.13;;;2.33;;
65189;SDS011;51777;53.570;9.984;2022-12-29T16:48:10;11.20;;;3.53;;
65189;SDS011;51777;53.570;9.984;2022-12-29T16:50:44;8.45;;;3.13;;
65189;SDS011;51777;53.570;9.984;2022-12-29T16:55:54;13.10;;;2.75;;
65189;SDS011;51777;53.570;9.984;2022-12-29T16:58:24;16.23;;;8.15;;
65189;SDS011;51777;53.570;9.984;2022-12-29T17:00:54;5.63;;;1.98;;
65189;SDS011;51777;53.570;9.984;2022-12-29T17:03:21;11.50;;;3.45;;
65189;SDS011;51777;53.570;9.984;2022-12-29T17:05:48;7.07;;;3.08;;
65189;SDS011;51777;53.570;9.984;2022-12-29T17:08:17;11.05;;;4.80;;
65189;SDS011;51777;53.570;9.984;2022-12-29T17:10:51;7.85;;;3.08;;
65189;SDS011;51777;53.570;9.984;2022-12-29T17:13:38;9.40;;;2.55;;
65189;SDS011;51777;53.570;9.984;2022-12-29T17:16:07;8.85;;;2.05;;
65189;SDS011;51777;53.570;9.984;2022-12-29T17:18:35;7.43;;;3.20;;
65189;SDS011;51777;53.570;9.984;2022-12-29T17:21:01;10.50;;;3.95;;
65189;SDS011;51777;53.570;9.984;2022-12-29T17:23:27;12.45;;;3.50;;
65189;SDS011;51777;53.570;9.984;2022-12-29T17:25:54;9.60;;;3.17;;
65189;SDS011;51777;53.570;9.984;2022-12-29T17:28:29;8.45;;;2.63;;
65189;SDS011;51777;53.570;9.984;2022-12-29T17:31:00;12.15;;;2.88;;
65189;SDS011;51777;53.570;9.984;2022-12-29T17:33:29;5.13;;;2.38;;
65189;SDS011;51777;53.570;9.984;2022-12-29T17:35:57;10.63;;;2.97;;
65189;SDS011;51777;53.570;9.984;2022-12-29T17:38:30;10.73;;;3.00;;
65189;SDS011;51777;53.570;9.984;2022-12-29T17:40:58;9.63;;;2.88;;
65189;SDS011;51777;53.570;9.984;2022-12-29T17:43:24;5.18;;;2.40;;
65189;SDS011;51777;53.570;9.984;2022-12-29T17:45:54;6.50;;;2.47;;
65189;SDS011;51777;53.570;9.984;2022-12-29T17:48:22;9.35;;;2.58;;
65189;SDS011;51777;53.570;9.984;2022-12-29T17:50:49;7.28;;;2.28;;
65189;SDS011;51777;53.570;9.984;2022-12-29T17:53:19;7.65;;;2.92;;
65189;SDS011;51777;53.570;9.984;2022-12-29T17:55:46;11.38;;;3.35;;